Terminal Aerodrome Forecast
Issued by NWS Tuscon, AZ

Home | Current Version | Previous Version | Text Only | Print | Product List | Glossary On
Versions: 1 2 3 4 5 6 7 8 9 10 11 12 13
000
FTUS45 KTWC 181100
TAFTUS
TAF
KTUS 181126Z 1812/1912 14008KT P6SM SKC
     FM181900 30010G18KT P6SM SKC
     FM190200 24005KT P6SM SKC
     FM190700 14007KT P6SM SKC=

USA.gov is the U.S. government's official web portal to all federal, state and local government web resources and services.